createdAt,value
2019-04-03T00:01:12.273Z,93.20
2019-04-03T00:03:42.274Z,92.40
2019-04-03T00:06:12.257Z,92.80
2019-04-03T00:08:42.380Z,92.90
2019-04-03T00:11:12.562Z,93.00
2019-04-03T00:13:42.663Z,93.60
2019-04-03T00:16:15.342Z,94.40
2019-04-03T00:18:46.781Z,94.50
2019-04-03T00:21:15.954Z,94.80
2019-04-03T00:23:46.005Z,95.20
2019-04-03T00:26:15.875Z,95.00
2019-04-03T00:28:46.001Z,94.60
2019-04-03T00:31:15.844Z,94.60
2019-04-03T00:33:46.023Z,95.40
2019-04-03T00:36:15.937Z,95.30
2019-04-03T00:38:45.970Z,94.80
2019-04-03T00:41:15.829Z,94.70
2019-04-03T00:43:45.889Z,96.30
2019-04-03T00:46:15.801Z,95.90
2019-04-03T00:48:45.717Z,94.70
2019-04-03T00:51:15.632Z,94.60
2019-04-03T00:53:45.679Z,94.10
2019-04-03T00:56:15.780Z,94.20
2019-04-03T00:58:46.185Z,95.30
2019-04-03T01:01:16.318Z,95.70
2019-04-03T01:03:46.441Z,96.40
2019-04-03T01:06:16.476Z,96.80
2019-04-03T01:08:46.691Z,97.00
2019-04-03T01:11:16.459Z,97.80
2019-04-03T01:13:46.718Z,98.60
2019-04-03T01:16:16.611Z,98.50
2019-04-03T01:18:46.542Z,98.30
2019-04-03T01:21:16.524Z,97.60
2019-04-03T01:23:46.816Z,97.20
2019-04-03T01:26:16.756Z,96.30
2019-04-03T01:28:46.665Z,96.40
2019-04-03T01:31:16.716Z,95.90
2019-04-03T01:33:47.186Z,95.20
2019-04-03T01:36:17.572Z,96.80
2019-04-03T01:38:49.758Z,97.90
2019-04-03T01:41:21.278Z,98.60
2019-04-03T01:43:53.379Z,98.60
2019-04-03T01:46:22.868Z,99.40
2019-04-03T01:48:52.968Z,99.90
2019-04-03T01:51:22.936Z,99.90
2019-04-03T01:53:53.043Z,99.80
2019-04-03T01:56:22.999Z,99.60
2019-04-03T01:58:53.127Z,99.30
2019-04-03T02:01:23.376Z,99.90
2019-04-03T02:03:53.359Z,99.90
2019-04-03T02:06:23.557Z,99.90
2019-04-03T02:08:53.645Z,99.70
2019-04-03T02:11:23.400Z,99.90
2019-04-03T02:13:53.557Z,99.90
2019-04-03T02:16:23.806Z,99.90
2019-04-03T02:18:55.379Z,99.90
2019-04-03T02:21:27.294Z,99.90
2019-04-03T02:23:57.749Z,99.90
2019-04-03T02:26:27.725Z,99.90
2019-04-03T02:28:57.558Z,99.90
2019-04-03T02:31:27.783Z,99.90
2019-04-03T02:34:01.284Z,99.90
2019-04-03T02:36:29.451Z,99.90
2019-04-03T02:38:59.396Z,99.90
2019-04-03T02:41:29.648Z,99.90
2019-04-03T02:43:59.702Z,99.90
2019-04-03T02:46:29.839Z,99.90
2019-04-03T02:48:59.940Z,99.90
2019-04-03T02:51:30.223Z,99.90
2019-04-03T02:54:02.479Z,99.90
2019-04-03T02:56:32.129Z,99.90
2019-04-03T02:59:02.430Z,99.90
2019-04-03T03:01:32.630Z,99.90
2019-04-03T03:04:03.100Z,99.90
2019-04-03T03:06:37.119Z,99.90
2019-04-03T03:09:07.851Z,99.90
2019-04-03T03:11:38.317Z,99.90
2019-04-03T03:14:09.585Z,99.90
2019-04-03T03:16:39.775Z,99.90
2019-04-03T03:19:09.958Z,99.90
2019-04-03T03:21:44.055Z,99.90
2019-04-03T03:24:12.273Z,99.90
2019-04-03T03:26:42.579Z,99.90
2019-04-03T03:29:17.575Z,99.90
2019-04-03T03:32:05.312Z,99.90
2019-04-03T03:34:43.667Z,99.90
2019-04-03T03:36:57.970Z,99.90
2019-04-03T03:39:23.193Z,99.90
2019-04-03T03:41:56.221Z,99.90
2019-04-03T03:44:26.969Z,99.90
2019-04-03T03:47:01.022Z,99.90
2019-04-03T03:49:30.431Z,99.90
2019-04-03T03:52:04.141Z,99.90
2019-04-03T03:54:33.691Z,99.90
2019-04-03T03:57:05.265Z,99.90
2019-04-03T03:59:37.271Z,99.90
2019-04-03T04:02:07.379Z,99.90
2019-04-03T04:04:37.782Z,99.90
2019-04-03T04:07:08.042Z,99.90
2019-04-03T04:09:38.113Z,99.90
2019-04-03T04:12:08.705Z,99.90
2019-04-03T04:14:39.245Z,99.90
2019-04-03T04:17:15.116Z,99.90
2019-04-03T04:19:41.068Z,99.90
2019-04-03T04:22:11.299Z,99.90
2019-04-03T04:24:42.747Z,99.90
2019-04-03T04:27:13.279Z,99.90
2019-04-03T04:29:43.490Z,99.90
2019-04-03T04:32:14.918Z,99.90
2019-04-03T04:34:45.877Z,99.90
2019-04-03T04:37:16.381Z,99.90
2019-04-03T04:39:46.407Z,99.90
2019-04-03T04:42:16.264Z,99.90
2019-04-03T04:44:46.550Z,99.90
2019-04-03T04:47:16.706Z,99.90
2019-04-03T04:49:46.856Z,99.90
2019-04-03T04:52:16.898Z,99.90
2019-04-03T04:54:47.196Z,99.90
2019-04-03T04:57:17.060Z,99.90
2019-04-03T04:59:47.149Z,99.90
2019-04-03T05:02:17.874Z,99.90
2019-04-03T05:04:48.827Z,99.90
2019-04-03T05:07:18.820Z,99.90
2019-04-03T05:09:48.955Z,99.90
2019-04-03T05:12:19.010Z,99.90
2019-04-03T05:14:49.495Z,99.90
2019-04-03T05:17:20.153Z,99.90
2019-04-03T05:19:50.606Z,99.90
2019-04-03T05:22:23.224Z,99.90
2019-04-03T05:24:52.548Z,99.90
2019-04-03T05:27:22.753Z,99.90
2019-04-03T05:29:52.898Z,99.90
2019-04-03T05:32:22.972Z,99.90
2019-04-03T05:34:52.969Z,99.90
2019-04-03T05:37:23.547Z,99.90
2019-04-03T05:39:55.679Z,99.90
2019-04-03T05:42:26.947Z,99.90
2019-04-03T05:44:57.691Z,99.90
2019-04-03T05:47:28.630Z,99.90
2019-04-03T05:49:58.564Z,99.90
2019-04-03T05:52:28.666Z,99.90
2019-04-03T05:54:58.694Z,99.90
2019-04-03T05:57:29.599Z,99.90
2019-04-03T06:00:01.849Z,99.90
2019-04-03T06:02:31.194Z,99.90
2019-04-03T06:05:01.474Z,99.90
2019-04-03T06:07:31.655Z,99.90
2019-04-03T06:10:01.639Z,99.90
2019-04-03T06:12:32.020Z,99.90
2019-04-03T06:15:02.161Z,99.90
2019-04-03T06:17:32.104Z,99.90
2019-04-03T06:20:02.550Z,99.90
2019-04-03T06:22:32.541Z,99.90
2019-04-03T06:25:02.665Z,99.90
2019-04-03T06:27:33.130Z,99.90
2019-04-03T06:30:03.123Z,99.90
2019-04-03T06:32:33.233Z,99.90
2019-04-03T06:35:03.392Z,99.90
2019-04-03T06:37:33.493Z,99.90
2019-04-03T06:40:03.905Z,99.90
2019-04-03T06:42:34.384Z,99.90
2019-04-03T06:45:04.891Z,99.90
2019-04-03T06:47:34.760Z,99.90
2019-04-03T06:50:05.495Z,99.90
2019-04-03T06:52:35.510Z,99.90
2019-04-03T06:55:05.474Z,99.90
2019-04-03T06:57:35.592Z,99.90
2019-04-03T07:00:05.897Z,99.90
2019-04-03T07:02:35.906Z,98.90
2019-04-03T07:05:06.336Z,95.40
2019-04-03T07:07:36.247Z,93.40
2019-04-03T07:10:08.848Z,92.10
2019-04-03T07:12:38.334Z,91.50
2019-04-03T07:15:08.812Z,91.00
2019-04-03T07:17:39.279Z,89.10
2019-04-03T07:20:14.175Z,87.20
2019-04-03T07:22:42.027Z,83.20
2019-04-03T07:25:12.485Z,81.60
2019-04-03T07:27:42.842Z,79.80
2019-04-03T07:30:13.119Z,90.20
2019-04-03T07:32:42.918Z,92.80
2019-04-03T07:35:13.301Z,93.40
2019-04-03T07:37:43.400Z,95.00
2019-04-03T07:40:13.830Z,94.10
2019-04-03T07:42:43.860Z,94.60
2019-04-03T07:45:15.004Z,94.40
2019-04-03T07:47:45.102Z,94.80
2019-04-03T07:50:15.750Z,92.70
2019-04-03T07:52:47.787Z,89.10
2019-04-03T07:55:17.393Z,85.90
2019-04-03T07:57:47.655Z,85.70
2019-04-03T08:00:18.045Z,84.20
2019-04-03T08:02:49.931Z,84.40
2019-04-03T08:05:19.970Z,83.60
2019-04-03T08:07:49.918Z,80.60
2019-04-03T08:10:19.950Z,79.30
2019-04-03T08:12:50.079Z,78.30
2019-04-03T08:15:19.765Z,78.60
2019-04-03T08:17:50.879Z,75.10
2019-04-03T08:20:21.079Z,74.60
2019-04-03T08:22:51.175Z,71.80
2019-04-03T08:25:21.112Z,69.50
2019-04-03T08:27:54.331Z,71.10
2019-04-03T08:30:24.292Z,69.50
2019-04-03T08:32:54.316Z,66.20
2019-04-03T08:35:24.701Z,67.40
2019-04-03T08:37:54.968Z,66.60
2019-04-03T08:40:25.163Z,65.60
2019-04-03T08:42:55.480Z,64.80
2019-04-03T08:45:25.490Z,66.60
2019-04-03T08:47:55.395Z,68.40
2019-04-03T08:50:26.780Z,68.30
2019-04-03T08:52:57.933Z,70.00
2019-04-03T08:55:27.948Z,66.10
2019-04-03T08:57:57.998Z,63.80
2019-04-03T09:00:31.395Z,63.10
2019-04-03T09:03:00.102Z,64.60
2019-04-03T09:05:30.659Z,65.40
2019-04-03T09:08:00.817Z,63.20
2019-04-03T09:10:32.695Z,62.80
2019-04-03T09:13:15.358Z,62.50
2019-04-03T09:15:34.000Z,61.90
2019-04-03T09:18:06.421Z,60.60
2019-04-03T09:20:36.073Z,60.30
2019-04-03T09:23:06.005Z,59.80
2019-04-03T09:25:36.123Z,58.70
2019-04-03T09:28:06.388Z,58.10
2019-04-03T09:30:36.978Z,58.90
2019-04-03T09:33:07.282Z,57.60
2019-04-03T09:35:37.636Z,55.30
2019-04-03T09:38:09.507Z,54.40
2019-04-03T09:40:39.485Z,54.70
2019-04-03T09:43:09.527Z,54.60
2019-04-03T09:45:39.416Z,54.70
2019-04-03T09:48:11.649Z,54.60
2019-04-03T09:50:41.255Z,53.70
2019-04-03T09:53:11.560Z,53.70
2019-04-03T09:55:41.654Z,54.20
2019-04-03T09:58:11.663Z,52.90
2019-04-03T10:00:42.823Z,52.20
2019-04-03T10:03:13.442Z,52.20
2019-04-03T10:05:43.369Z,53.00
2019-04-03T10:08:13.671Z,52.50
2019-04-03T10:10:46.469Z,51.80
2019-04-03T10:13:15.629Z,52.00
2019-04-03T10:15:45.811Z,51.70
2019-04-03T10:18:15.939Z,51.40
2019-04-03T10:20:48.786Z,52.00
2019-04-03T10:23:17.836Z,51.20
2019-04-03T10:25:48.028Z,50.70
2019-04-03T10:28:18.039Z,51.10
2019-04-03T10:30:48.489Z,51.20
2019-04-03T10:33:18.528Z,51.20
2019-04-03T10:35:48.564Z,51.20
2019-04-03T10:38:19.015Z,50.90
2019-04-03T10:40:49.193Z,51.10
2019-04-03T10:43:19.315Z,50.40
2019-04-03T10:45:49.451Z,50.20
2019-04-03T10:48:19.285Z,50.60
2019-04-03T10:50:49.295Z,50.80
2019-04-03T10:53:19.958Z,50.40
2019-04-03T10:55:50.624Z,49.10
2019-04-03T10:58:20.680Z,48.40
2019-04-03T11:00:51.141Z,47.80
2019-04-03T11:03:21.282Z,48.30
2019-04-03T11:05:51.320Z,48.20
2019-04-03T11:08:21.012Z,49.00
2019-04-03T11:10:51.152Z,46.90
2019-04-03T11:13:21.329Z,44.90
2019-04-03T11:15:51.485Z,45.10
2019-04-03T11:18:21.838Z,44.80
2019-04-03T11:20:52.123Z,43.60
2019-04-03T11:23:36.517Z,43.20
2019-04-03T11:25:53.805Z,42.90
2019-04-03T11:28:24.018Z,43.20
2019-04-03T11:30:55.923Z,42.00
2019-04-03T11:33:26.211Z,41.50
2019-04-03T11:35:56.448Z,41.20
2019-04-03T11:38:28.736Z,39.60
2019-04-03T11:40:58.121Z,38.80
2019-04-03T11:43:30.823Z,40.10
2019-04-03T11:45:59.747Z,40.80
2019-04-03T11:48:29.910Z,39.80
2019-04-03T11:51:00.017Z,39.90
2019-04-03T11:53:30.651Z,38.10
2019-04-03T11:56:00.956Z,37.80
2019-04-03T11:58:30.953Z,36.70
2019-04-03T12:01:00.987Z,37.00
2019-04-03T12:03:31.093Z,36.00
2019-04-03T12:06:01.365Z,37.30
2019-04-03T12:08:31.617Z,38.50
2019-04-03T12:11:01.887Z,39.90
2019-04-03T12:13:31.807Z,38.50
2019-04-03T12:16:01.929Z,39.00
2019-04-03T12:18:34.105Z,38.00
2019-04-03T12:21:03.473Z,37.30
2019-04-03T12:23:33.591Z,37.30
2019-04-03T12:26:03.855Z,37.90
2019-04-03T12:28:34.108Z,38.10
2019-04-03T12:31:04.341Z,38.60
2019-04-03T12:33:34.478Z,37.60
2019-04-03T12:36:06.507Z,37.00
2019-04-03T12:38:36.391Z,37.00
2019-04-03T12:41:08.124Z,37.60
2019-04-03T12:43:38.070Z,37.40
2019-04-03T12:46:08.381Z,38.30
2019-04-03T12:48:38.261Z,38.00
2019-04-03T12:51:08.088Z,38.70
2019-04-03T12:53:37.832Z,39.70
2019-04-03T12:56:07.603Z,40.00
2019-04-03T12:58:38.515Z,39.00
2019-04-03T13:01:10.790Z,39.90
2019-04-03T13:03:40.400Z,40.60
2019-04-03T13:06:10.948Z,38.40
2019-04-03T13:08:40.847Z,38.90
2019-04-03T13:11:10.976Z,39.90
2019-04-03T13:13:41.286Z,39.70
2019-04-03T13:16:11.751Z,40.00
2019-04-03T13:18:42.033Z,41.40
2019-04-03T13:21:12.224Z,41.50
2019-04-03T13:23:45.084Z,41.20
2019-04-03T13:26:14.332Z,40.40
2019-04-03T13:28:44.595Z,39.20
2019-04-03T13:31:14.958Z,39.00
2019-04-03T13:33:45.908Z,38.90
2019-04-03T13:36:18.240Z,38.80
2019-04-03T13:38:50.142Z,38.00
2019-04-03T13:41:19.190Z,37.70
2019-04-03T13:43:49.176Z,38.40
2019-04-03T13:46:19.300Z,38.60
2019-04-03T13:48:49.123Z,38.60
2019-04-03T13:51:19.121Z,36.70
2019-04-03T13:53:49.035Z,35.70
2019-04-03T13:56:19.319Z,35.70
2019-04-03T13:58:52.642Z,34.60
2019-04-03T14:01:20.916Z,34.70
2019-04-03T14:03:51.469Z,34.40
2019-04-03T14:06:22.114Z,37.30
2019-04-03T14:08:52.019Z,38.40
2019-04-03T14:11:22.137Z,40.20
2019-04-03T14:13:52.217Z,40.90
2019-04-03T14:16:23.480Z,40.60
2019-04-03T14:18:53.441Z,39.90
2019-04-03T14:21:25.277Z,41.60
2019-04-03T14:23:55.478Z,42.80
2019-04-03T14:26:25.570Z,41.80
2019-04-03T14:28:55.838Z,41.20
2019-04-03T14:31:34.294Z,40.50
2019-04-03T14:33:58.488Z,40.70
2019-04-03T14:36:29.344Z,40.80
2019-04-03T14:39:02.373Z,41.00
2019-04-03T14:41:31.386Z,41.20
2019-04-03T14:44:06.890Z,41.00
2019-04-03T14:46:36.170Z,40.40
2019-04-03T14:49:06.741Z,40.80
2019-04-03T14:51:36.936Z,41.10
2019-04-03T14:54:08.434Z,42.00
2019-04-03T14:56:39.103Z,41.40
2019-04-03T14:59:09.238Z,41.90
2019-04-03T15:01:39.629Z,40.90
2019-04-03T15:04:09.807Z,40.20
2019-04-03T15:06:40.229Z,42.40
2019-04-03T15:09:10.651Z,45.10
2019-04-03T15:11:40.740Z,46.10
2019-04-03T15:14:10.702Z,46.80
2019-04-03T15:16:40.803Z,47.40
2019-04-03T15:19:13.102Z,47.30
2019-04-03T15:21:42.423Z,48.70
2019-04-03T15:24:13.023Z,50.20
2019-04-03T15:26:43.199Z,51.60
2019-04-03T15:29:13.413Z,52.60
2019-04-03T15:31:45.821Z,52.30
2019-04-03T15:34:15.407Z,50.40
2019-04-03T15:36:45.508Z,48.60
2019-04-03T15:39:16.821Z,47.10
2019-04-03T15:41:47.423Z,46.50
2019-04-03T15:44:19.818Z,46.80
2019-04-03T15:46:49.618Z,47.80
2019-04-03T15:49:19.716Z,46.50
2019-04-03T15:51:50.242Z,46.10
2019-04-03T15:54:20.393Z,45.90
2019-04-03T15:56:50.265Z,46.30
2019-04-03T15:59:20.267Z,48.50
2019-04-03T16:01:50.341Z,48.50
2019-04-03T16:04:20.736Z,49.80
2019-04-03T16:06:50.711Z,51.30
2019-04-03T16:09:34.049Z,52.80
2019-04-03T16:12:06.237Z,53.30
2019-04-03T16:14:36.713Z,53.70
2019-04-03T16:17:06.781Z,53.80
2019-04-03T16:19:36.783Z,54.00
2019-04-03T16:22:07.010Z,54.30
2019-04-03T16:24:37.191Z,54.30
2019-04-03T16:27:08.430Z,54.60
2019-04-03T16:29:40.034Z,55.10
2019-04-03T16:32:10.671Z,56.00
2019-04-03T16:34:41.754Z,55.30
2019-04-03T16:37:12.865Z,58.10
2019-04-03T16:39:43.519Z,56.00
2019-04-03T16:42:14.147Z,55.90
2019-04-03T16:44:45.729Z,56.40
2019-04-03T16:47:15.863Z,56.80
2019-04-03T16:49:46.024Z,57.10
2019-04-03T16:52:16.448Z,57.70
2019-04-03T16:54:46.554Z,58.00
2019-04-03T16:57:16.440Z,58.00
2019-04-03T16:59:46.584Z,58.20
2019-04-03T17:02:18.815Z,57.30
2019-04-03T17:04:48.170Z,56.60
2019-04-03T17:07:20.624Z,55.70
2019-04-03T17:09:50.129Z,55.90
2019-04-03T17:12:20.255Z,55.60
2019-04-03T17:14:50.184Z,55.60
2019-04-03T17:17:20.862Z,56.00
2019-04-03T17:19:51.770Z,56.90
2019-04-03T17:22:22.354Z,57.30
2019-04-03T17:24:55.724Z,57.50
2019-04-03T17:27:24.900Z,57.60
2019-04-03T17:29:57.280Z,57.60
2019-04-03T17:32:35.632Z,58.00
2019-04-03T17:35:07.766Z,58.10
2019-04-03T17:37:38.426Z,59.20
2019-04-03T17:40:09.950Z,59.30
2019-04-03T17:42:40.239Z,60.70
2019-04-03T17:45:16.262Z,58.90
2019-04-03T17:47:53.580Z,59.50
2019-04-03T17:50:23.840Z,59.40
2019-04-03T17:52:57.350Z,60.50
2019-04-03T17:55:28.530Z,60.40
2019-04-03T17:58:04.090Z,60.70
2019-04-03T18:01:16.326Z,61.00
2019-04-03T18:07:12.990Z,63.50
2019-04-03T18:09:43.107Z,64.20
2019-04-03T18:12:12.836Z,64.30
2019-04-03T18:14:42.490Z,64.20
2019-04-03T18:17:12.461Z,64.40
2019-04-03T18:19:48.095Z,65.20
2019-04-03T18:22:15.165Z,64.70
2019-04-03T18:24:44.902Z,65.00
2019-04-03T18:27:14.554Z,65.60
2019-04-03T18:29:44.866Z,66.50
2019-04-03T18:32:15.384Z,68.20
2019-04-03T18:34:49.498Z,68.70
2019-04-03T18:37:19.329Z,69.30
2019-04-03T18:39:51.617Z,69.10
2019-04-03T18:42:21.291Z,68.50
2019-04-03T18:44:51.256Z,69.10
2019-04-03T18:47:21.926Z,68.80
2019-04-03T18:49:52.077Z,70.50
2019-04-03T18:52:22.170Z,70.50
2019-04-03T18:54:52.235Z,70.00
2019-04-03T18:57:22.466Z,70.00
2019-04-03T18:59:52.511Z,70.90
2019-04-03T19:02:22.914Z,72.00
2019-04-03T19:05:01.910Z,71.20
2019-04-03T19:07:24.720Z,70.70
2019-04-03T19:10:06.475Z,70.40
2019-04-03T19:12:35.374Z,72.80
2019-04-03T19:14:57.659Z,73.40
2019-04-03T19:17:27.638Z,75.50
2019-04-03T19:20:09.776Z,76.00
2019-04-03T19:22:29.435Z,76.60
2019-04-03T19:24:59.374Z,78.80
2019-04-03T19:27:31.068Z,80.80
2019-04-03T19:30:01.095Z,79.90
2019-04-03T19:32:31.233Z,81.20
2019-04-03T19:35:01.339Z,89.00
2019-04-03T19:37:33.350Z,87.40
2019-04-03T19:40:02.898Z,87.40
2019-04-03T19:42:32.809Z,86.80
2019-04-03T19:45:02.941Z,85.90
2019-04-03T19:47:34.995Z,86.10
2019-04-03T19:50:06.029Z,87.10
2019-04-03T19:52:37.390Z,89.20
2019-04-03T19:55:08.727Z,90.00
2019-04-03T19:57:38.875Z,90.00
2019-04-03T20:00:09.487Z,90.70
2019-04-03T20:02:42.645Z,91.20
2019-04-03T20:05:11.273Z,92.50
2019-04-03T20:07:41.265Z,93.50
2019-04-03T20:10:11.918Z,93.20
2019-04-03T20:12:42.138Z,93.30
2019-04-03T20:15:12.326Z,93.10
2019-04-03T20:17:42.253Z,92.90
2019-04-03T20:20:12.605Z,93.30
2019-04-03T20:22:42.775Z,93.40
2019-04-03T20:25:15.141Z,94.00
2019-04-03T20:27:47.294Z,94.50
2019-04-03T20:30:16.510Z,95.50
2019-04-03T20:32:46.851Z,97.60
2019-04-03T20:35:18.739Z,97.70
2019-04-03T20:37:48.454Z,98.10
2019-04-03T20:40:18.332Z,98.60
2019-04-03T20:42:48.623Z,97.40
2019-04-03T20:45:19.158Z,97.60
2019-04-03T20:47:49.803Z,98.20
2019-04-03T20:50:19.989Z,98.10
2019-04-03T20:52:49.951Z,98.90
2019-04-03T20:55:19.876Z,98.40
2019-04-03T20:57:55.812Z,99.00
2019-04-03T21:00:21.737Z,99.50
2019-04-03T21:02:51.631Z,98.90
2019-04-03T21:05:21.786Z,98.60
2019-04-03T21:07:51.792Z,99.20
2019-04-03T21:10:22.078Z,99.80
2019-04-03T21:12:52.148Z,99.70
2019-04-03T21:15:22.127Z,99.70
2019-04-03T21:17:52.273Z,98.90
2019-04-03T21:20:23.741Z,98.00
2019-04-03T21:22:54.256Z,98.30
2019-04-03T21:25:24.352Z,99.10
2019-04-03T21:27:54.816Z,99.70
2019-04-03T21:30:24.795Z,99.90
2019-04-03T21:32:54.949Z,99.90
2019-04-03T21:35:24.980Z,99.90
2019-04-03T21:37:55.237Z,99.90
2019-04-03T21:40:25.136Z,99.90
2019-04-03T21:42:57.626Z,99.90
2019-04-03T21:45:26.865Z,99.90
2019-04-03T21:47:56.981Z,99.90
2019-04-03T21:50:26.888Z,99.90
2019-04-03T21:52:56.890Z,99.90
2019-04-03T21:55:26.917Z,99.90
2019-04-03T21:57:57.251Z,99.90
2019-04-03T22:01:00.755Z,99.90
2019-04-03T22:03:30.875Z,99.90
2019-04-03T22:06:00.969Z,99.90
2019-04-03T22:08:30.990Z,99.90
2019-04-03T22:11:03.900Z,99.90
2019-04-03T22:13:32.856Z,99.90
2019-04-03T22:16:02.768Z,99.90
2019-04-03T22:18:32.926Z,99.90
2019-04-03T22:21:02.932Z,99.90
2019-04-03T22:23:35.570Z,99.90
2019-04-03T22:26:05.218Z,99.90
2019-04-03T22:28:35.145Z,99.90
2019-04-03T22:31:05.232Z,99.90
2019-04-03T22:33:35.157Z,99.90
2019-04-03T22:36:05.347Z,99.90
2019-04-03T22:38:37.159Z,99.90
2019-04-03T22:41:06.869Z,99.90
2019-04-03T22:43:36.724Z,99.90
2019-04-03T22:46:06.744Z,99.90
2019-04-03T22:48:36.899Z,99.90
2019-04-03T22:51:07.449Z,99.90
2019-04-03T22:53:37.540Z,99.90
2019-04-03T22:56:07.462Z,99.90
2019-04-03T22:58:37.590Z,99.90
2019-04-03T23:01:07.977Z,99.90
2019-04-03T23:03:38.263Z,99.90
2019-04-03T23:06:08.015Z,99.90
2019-04-03T23:08:38.193Z,99.90
2019-04-03T23:11:08.465Z,99.90
2019-04-03T23:13:38.484Z,99.90
2019-04-03T23:16:09.637Z,99.90
2019-04-03T23:18:40.391Z,99.90
2019-04-03T23:21:10.780Z,99.90
2019-04-03T23:23:40.804Z,99.90
2019-04-03T23:26:11.167Z,99.90
2019-04-03T23:28:41.470Z,99.90
2019-04-03T23:31:13.048Z,99.90
2019-04-03T23:33:43.449Z,99.90
2019-04-03T23:36:13.442Z,99.90
2019-04-03T23:38:43.657Z,99.90
2019-04-03T23:41:13.605Z,99.90
2019-04-03T23:43:43.927Z,99.90
2019-04-03T23:46:14.710Z,99.90
2019-04-03T23:48:48.661Z,99.90
2019-04-03T23:51:23.024Z,99.90
2019-04-03T23:53:48.913Z,99.90
2019-04-03T23:56:19.107Z,99.90
2019-04-03T23:58:49.125Z,99.90
